sensor_id;sensor_type;location;lat;lon;timestamp;P1;durP1;ratioP1;P2;durP2;ratioP2
45812;SDS011;31519;45.408;10.962;2023-04-30T00:00:34;25.95;;;12.98;;
45812;SDS011;31519;45.408;10.962;2023-04-30T00:03:22;27.50;;;12.77;;
45812;SDS011;31519;45.408;10.962;2023-04-30T00:05:51;20.13;;;12.23;;
45812;SDS011;31519;45.408;10.962;2023-04-30T00:08:20;18.52;;;12.00;;
45812;SDS011;31519;45.408;10.962;2023-04-30T00:10:48;22.50;;;12.00;;
45812;SDS011;31519;45.408;10.962;2023-04-30T00:13:16;20.33;;;12.65;;
45812;SDS011;31519;45.408;10.962;2023-04-30T00:15:45;20.00;;;12.80;;
45812;SDS011;31519;45.408;10.962;2023-04-30T00:18:13;23.65;;;12.00;;
45812;SDS011;31519;45.408;10.962;2023-04-30T00:20:41;19.00;;;11.80;;
45812;SDS011;31519;45.408;10.962;2023-04-30T00:23:09;21.27;;;12.05;;
45812;SDS011;31519;45.408;10.962;2023-04-30T00:25:37;20.48;;;12.77;;
45812;SDS011;31519;45.408;10.962;2023-04-30T00:28:05;24.02;;;12.95;;
45812;SDS011;31519;45.408;10.962;2023-04-30T00:30:33;25.25;;;13.23;;
45812;SDS011;31519;45.408;10.962;2023-04-30T00:33:01;20.67;;;12.38;;
45812;SDS011;31519;45.408;10.962;2023-04-30T00:35:29;19.48;;;13.10;;
45812;SDS011;31519;45.408;10.962;2023-04-30T00:37:57;22.67;;;12.05;;
45812;SDS011;31519;45.408;10.962;2023-04-30T00:40:25;22.77;;;13.82;;
45812;SDS011;31519;45.408;10.962;2023-04-30T00:42:53;23.40;;;13.88;;
45812;SDS011;31519;45.408;10.962;2023-04-30T00:45:22;21.50;;;13.57;;
45812;SDS011;31519;45.408;10.962;2023-04-30T00:47:50;22.33;;;13.63;;
45812;SDS011;31519;45.408;10.962;2023-04-30T00:50:18;19.55;;;13.25;;
45812;SDS011;31519;45.408;10.962;2023-04-30T00:52:47;22.10;;;13.52;;
45812;SDS011;31519;45.408;10.962;2023-04-30T00:55:15;20.15;;;13.55;;
45812;SDS011;31519;45.408;10.962;2023-04-30T00:57:44;25.20;;;13.80;;
45812;SDS011;31519;45.408;10.962;2023-04-30T01:00:13;24.67;;;14.15;;
45812;SDS011;31519;45.408;10.962;2023-04-30T01:02:41;21.95;;;12.35;;
45812;SDS011;31519;45.408;10.962;2023-04-30T01:05:11;22.40;;;14.10;;
45812;SDS011;31519;45.408;10.962;2023-04-30T01:07:39;23.58;;;14.00;;
45812;SDS011;31519;45.408;10.962;2023-04-30T01:10:12;21.05;;;12.82;;
45812;SDS011;31519;45.408;10.962;2023-04-30T01:12:44;19.90;;;12.95;;
45812;SDS011;31519;45.408;10.962;2023-04-30T01:15:37;38.10;;;12.63;;
45812;SDS011;31519;45.408;10.962;2023-04-30T01:18:34;21.50;;;12.88;;
45812;SDS011;31519;45.408;10.962;2023-04-30T01:21:08;22.25;;;12.65;;
45812;SDS011;31519;45.408;10.962;2023-04-30T01:23:52;18.65;;;12.40;;
45812;SDS011;31519;45.408;10.962;2023-04-30T01:27:06;19.35;;;12.43;;
45812;SDS011;31519;45.408;10.962;2023-04-30T01:29:56;19.23;;;12.23;;
45812;SDS011;31519;45.408;10.962;2023-04-30T01:32:25;21.60;;;13.23;;
45812;SDS011;31519;45.408;10.962;2023-04-30T01:34:53;21.73;;;12.10;;
45812;SDS011;31519;45.408;10.962;2023-04-30T01:40:24;21.95;;;13.43;;
45812;SDS011;31519;45.408;10.962;2023-04-30T01:43:09;21.15;;;12.82;;
45812;SDS011;31519;45.408;10.962;2023-04-30T01:51:07;20.80;;;13.18;;
45812;SDS011;31519;45.408;10.962;2023-04-30T01:53:43;24.50;;;13.80;;
45812;SDS011;31519;45.408;10.962;2023-04-30T01:56:25;20.92;;;12.82;;
45812;SDS011;31519;45.408;10.962;2023-04-30T01:58:56;25.23;;;14.05;;
45812;SDS011;31519;45.408;10.962;2023-04-30T02:01:28;22.10;;;13.05;;
45812;SDS011;31519;45.408;10.962;2023-04-30T02:03:58;21.17;;;13.38;;
45812;SDS011;31519;45.408;10.962;2023-04-30T02:06:27;21.15;;;13.40;;
45812;SDS011;31519;45.408;10.962;2023-04-30T02:08:58;21.65;;;13.57;;
45812;SDS011;31519;45.408;10.962;2023-04-30T02:11:31;27.40;;;14.15;;
45812;SDS011;31519;45.408;10.962;2023-04-30T02:13:59;21.50;;;13.05;;
45812;SDS011;31519;45.408;10.962;2023-04-30T02:16:27;23.50;;;13.52;;
45812;SDS011;31519;45.408;10.962;2023-04-30T02:18:55;24.20;;;15.48;;
45812;SDS011;31519;45.408;10.962;2023-04-30T02:21:24;25.70;;;14.52;;
45812;SDS011;31519;45.408;10.962;2023-04-30T02:23:52;21.73;;;13.38;;
45812;SDS011;31519;45.408;10.962;2023-04-30T02:26:20;24.52;;;13.32;;
45812;SDS011;31519;45.408;10.962;2023-04-30T02:28:48;20.33;;;13.30;;
45812;SDS011;31519;45.408;10.962;2023-04-30T02:31:16;22.88;;;13.55;;
45812;SDS011;31519;45.408;10.962;2023-04-30T02:33:45;22.23;;;13.38;;
45812;SDS011;31519;45.408;10.962;2023-04-30T02:36:13;23.83;;;14.73;;
45812;SDS011;31519;45.408;10.962;2023-04-30T02:38:41;24.65;;;14.82;;
45812;SDS011;31519;45.408;10.962;2023-04-30T02:41:09;22.40;;;13.95;;
45812;SDS011;31519;45.408;10.962;2023-04-30T02:43:37;29.42;;;14.82;;
45812;SDS011;31519;45.408;10.962;2023-04-30T02:46:05;23.40;;;13.70;;
45812;SDS011;31519;45.408;10.962;2023-04-30T02:48:33;25.75;;;15.55;;
45812;SDS011;31519;45.408;10.962;2023-04-30T02:51:01;25.77;;;13.68;;
45812;SDS011;31519;45.408;10.962;2023-04-30T02:53:31;27.55;;;14.07;;
45812;SDS011;31519;45.408;10.962;2023-04-30T02:55:59;21.20;;;13.32;;
45812;SDS011;31519;45.408;10.962;2023-04-30T02:58:27;21.38;;;13.50;;
45812;SDS011;31519;45.408;10.962;2023-04-30T03:00:55;23.33;;;14.20;;
45812;SDS011;31519;45.408;10.962;2023-04-30T03:03:23;25.67;;;14.10;;
45812;SDS011;31519;45.408;10.962;2023-04-30T03:05:52;26.67;;;14.10;;
45812;SDS011;31519;45.408;10.962;2023-04-30T03:08:23;20.80;;;12.70;;
45812;SDS011;31519;45.408;10.962;2023-04-30T03:10:51;23.95;;;13.25;;
45812;SDS011;31519;45.408;10.962;2023-04-30T03:13:19;27.58;;;14.18;;
45812;SDS011;31519;45.408;10.962;2023-04-30T03:15:47;27.80;;;13.93;;
45812;SDS011;31519;45.408;10.962;2023-04-30T03:18:16;24.42;;;13.13;;
45812;SDS011;31519;45.408;10.962;2023-04-30T03:20:44;20.73;;;13.25;;
45812;SDS011;31519;45.408;10.962;2023-04-30T03:23:12;21.23;;;13.40;;
45812;SDS011;31519;45.408;10.962;2023-04-30T03:25:40;20.77;;;13.40;;
45812;SDS011;31519;45.408;10.962;2023-04-30T03:28:08;25.30;;;14.02;;
45812;SDS011;31519;45.408;10.962;2023-04-30T03:30:36;26.67;;;14.40;;
45812;SDS011;31519;45.408;10.962;2023-04-30T03:33:05;20.42;;;13.80;;
45812;SDS011;31519;45.408;10.962;2023-04-30T03:35:33;26.27;;;14.38;;
45812;SDS011;31519;45.408;10.962;2023-04-30T03:38:01;22.55;;;13.10;;
45812;SDS011;31519;45.408;10.962;2023-04-30T03:40:30;25.45;;;13.75;;
45812;SDS011;31519;45.408;10.962;2023-04-30T03:42:57;26.52;;;13.82;;
45812;SDS011;31519;45.408;10.962;2023-04-30T03:45:26;19.08;;;12.98;;
45812;SDS011;31519;45.408;10.962;2023-04-30T03:47:54;25.63;;;14.88;;
45812;SDS011;31519;45.408;10.962;2023-04-30T03:50:22;25.50;;;15.07;;
45812;SDS011;31519;45.408;10.962;2023-04-30T03:52:50;23.25;;;14.30;;
45812;SDS011;31519;45.408;10.962;2023-04-30T03:55:18;21.25;;;13.07;;
45812;SDS011;31519;45.408;10.962;2023-04-30T03:57:46;21.08;;;14.13;;
45812;SDS011;31519;45.408;10.962;2023-04-30T04:00:14;23.35;;;13.70;;
45812;SDS011;31519;45.408;10.962;2023-04-30T04:02:47;21.17;;;14.52;;
45812;SDS011;31519;45.408;10.962;2023-04-30T04:05:15;25.88;;;15.00;;
45812;SDS011;31519;45.408;10.962;2023-04-30T04:07:45;23.85;;;14.80;;
45812;SDS011;31519;45.408;10.962;2023-04-30T04:10:13;23.45;;;14.07;;
45812;SDS011;31519;45.408;10.962;2023-04-30T04:12:42;22.90;;;13.93;;
45812;SDS011;31519;45.408;10.962;2023-04-30T04:15:10;20.10;;;14.38;;
45812;SDS011;31519;45.408;10.962;2023-04-30T04:17:38;23.98;;;14.27;;
45812;SDS011;31519;45.408;10.962;2023-04-30T04:20:07;22.73;;;14.75;;
45812;SDS011;31519;45.408;10.962;2023-04-30T04:22:38;21.50;;;14.45;;
45812;SDS011;31519;45.408;10.962;2023-04-30T04:25:07;21.95;;;13.45;;
45812;SDS011;31519;45.408;10.962;2023-04-30T04:27:37;24.30;;;15.23;;
45812;SDS011;31519;45.408;10.962;2023-04-30T04:30:05;22.95;;;14.65;;
45812;SDS011;31519;45.408;10.962;2023-04-30T04:32:34;20.65;;;15.25;;
45812;SDS011;31519;45.408;10.962;2023-04-30T04:35:13;24.55;;;15.40;;
45812;SDS011;31519;45.408;10.962;2023-04-30T04:37:42;26.35;;;15.77;;
45812;SDS011;31519;45.408;10.962;2023-04-30T04:40:10;25.55;;;15.65;;
45812;SDS011;31519;45.408;10.962;2023-04-30T04:42:39;29.05;;;17.50;;
45812;SDS011;31519;45.408;10.962;2023-04-30T04:45:07;28.65;;;15.63;;
45812;SDS011;31519;45.408;10.962;2023-04-30T04:47:36;26.55;;;16.25;;
45812;SDS011;31519;45.408;10.962;2023-04-30T04:50:05;27.73;;;14.77;;
45812;SDS011;31519;45.408;10.962;2023-04-30T04:52:34;32.05;;;16.23;;
45812;SDS011;31519;45.408;10.962;2023-04-30T04:55:03;25.95;;;15.20;;
45812;SDS011;31519;45.408;10.962;2023-04-30T04:57:31;32.33;;;16.23;;
45812;SDS011;31519;45.408;10.962;2023-04-30T05:00:00;29.90;;;17.42;;
45812;SDS011;31519;45.408;10.962;2023-04-30T05:02:28;32.78;;;17.55;;
45812;SDS011;31519;45.408;10.962;2023-04-30T05:04:57;29.42;;;18.20;;
45812;SDS011;31519;45.408;10.962;2023-04-30T05:07:25;24.85;;;15.70;;
45812;SDS011;31519;45.408;10.962;2023-04-30T05:09:53;25.48;;;15.32;;
45812;SDS011;31519;45.408;10.962;2023-04-30T05:12:22;23.48;;;14.52;;
45812;SDS011;31519;45.408;10.962;2023-04-30T05:14:50;22.85;;;14.13;;
45812;SDS011;31519;45.408;10.962;2023-04-30T05:17:18;29.40;;;14.20;;
45812;SDS011;31519;45.408;10.962;2023-04-30T05:19:47;23.08;;;13.80;;
45812;SDS011;31519;45.408;10.962;2023-04-30T05:22:17;23.00;;;13.70;;
45812;SDS011;31519;45.408;10.962;2023-04-30T05:24:45;23.85;;;14.30;;
45812;SDS011;31519;45.408;10.962;2023-04-30T05:27:13;20.63;;;13.75;;
45812;SDS011;31519;45.408;10.962;2023-04-30T05:29:41;21.25;;;14.48;;
45812;SDS011;31519;45.408;10.962;2023-04-30T05:32:09;22.17;;;14.13;;
45812;SDS011;31519;45.408;10.962;2023-04-30T05:34:38;28.95;;;16.48;;
45812;SDS011;31519;45.408;10.962;2023-04-30T05:37:06;22.70;;;13.82;;
45812;SDS011;31519;45.408;10.962;2023-04-30T05:39:34;25.40;;;15.70;;
45812;SDS011;31519;45.408;10.962;2023-04-30T05:42:02;31.30;;;16.17;;
45812;SDS011;31519;45.408;10.962;2023-04-30T05:44:30;23.67;;;15.23;;
45812;SDS011;31519;45.408;10.962;2023-04-30T05:46:58;26.35;;;15.68;;
45812;SDS011;31519;45.408;10.962;2023-04-30T05:49:27;29.58;;;16.25;;
45812;SDS011;31519;45.408;10.962;2023-04-30T05:51:54;27.15;;;16.30;;
45812;SDS011;31519;45.408;10.962;2023-04-30T05:54:23;25.27;;;15.18;;
45812;SDS011;31519;45.408;10.962;2023-04-30T05:56:51;26.98;;;16.10;;
45812;SDS011;31519;45.408;10.962;2023-04-30T05:59:19;30.42;;;16.10;;
45812;SDS011;31519;45.408;10.962;2023-04-30T06:01:47;27.60;;;15.90;;
45812;SDS011;31519;45.408;10.962;2023-04-30T06:04:15;29.63;;;14.88;;
45812;SDS011;31519;45.408;10.962;2023-04-30T06:06:43;25.27;;;15.73;;
45812;SDS011;31519;45.408;10.962;2023-04-30T06:09:12;24.10;;;16.02;;
45812;SDS011;31519;45.408;10.962;2023-04-30T06:11:40;31.15;;;16.95;;
45812;SDS011;31519;45.408;10.962;2023-04-30T06:14:09;32.65;;;15.88;;
45812;SDS011;31519;45.408;10.962;2023-04-30T06:16:37;29.45;;;16.45;;
45812;SDS011;31519;45.408;10.962;2023-04-30T06:19:05;25.02;;;14.93;;
45812;SDS011;31519;45.408;10.962;2023-04-30T06:21:34;28.67;;;15.05;;
45812;SDS011;31519;45.408;10.962;2023-04-30T06:24:02;22.77;;;14.20;;
45812;SDS011;31519;45.408;10.962;2023-04-30T06:26:30;21.17;;;15.30;;
45812;SDS011;31519;45.408;10.962;2023-04-30T06:28:59;23.92;;;14.20;;
45812;SDS011;31519;45.408;10.962;2023-04-30T06:31:27;25.38;;;12.80;;
45812;SDS011;31519;45.408;10.962;2023-04-30T06:33:55;19.83;;;13.02;;
45812;SDS011;31519;45.408;10.962;2023-04-30T06:36:23;24.55;;;14.75;;
45812;SDS011;31519;45.408;10.962;2023-04-30T06:38:52;22.40;;;13.48;;
45812;SDS011;31519;45.408;10.962;2023-04-30T06:41:20;21.15;;;14.27;;
45812;SDS011;31519;45.408;10.962;2023-04-30T06:43:48;22.00;;;12.80;;
45812;SDS011;31519;45.408;10.962;2023-04-30T06:46:16;19.10;;;11.85;;
45812;SDS011;31519;45.408;10.962;2023-04-30T06:48:44;20.30;;;11.95;;
45812;SDS011;31519;45.408;10.962;2023-04-30T06:51:12;17.70;;;11.23;;
45812;SDS011;31519;45.408;10.962;2023-04-30T06:53:41;18.88;;;11.00;;
45812;SDS011;31519;45.408;10.962;2023-04-30T06:56:09;22.33;;;11.45;;
45812;SDS011;31519;45.408;10.962;2023-04-30T06:58:37;18.92;;;10.70;;
45812;SDS011;31519;45.408;10.962;2023-04-30T07:01:05;18.05;;;10.25;;
45812;SDS011;31519;45.408;10.962;2023-04-30T07:03:34;19.55;;;10.07;;
45812;SDS011;31519;45.408;10.962;2023-04-30T07:06:02;18.98;;;8.85;;
45812;SDS011;31519;45.408;10.962;2023-04-30T07:08:31;16.38;;;10.32;;
45812;SDS011;31519;45.408;10.962;2023-04-30T07:10:59;21.63;;;9.88;;
45812;SDS011;31519;45.408;10.962;2023-04-30T07:13:27;15.48;;;10.65;;
45812;SDS011;31519;45.408;10.962;2023-04-30T07:15:55;18.23;;;9.38;;
45812;SDS011;31519;45.408;10.962;2023-04-30T07:18:24;17.23;;;9.45;;
45812;SDS011;31519;45.408;10.962;2023-04-30T07:20:51;16.70;;;8.48;;
45812;SDS011;31519;45.408;10.962;2023-04-30T07:23:20;21.52;;;9.30;;
45812;SDS011;31519;45.408;10.962;2023-04-30T07:25:48;12.55;;;8.45;;
45812;SDS011;31519;45.408;10.962;2023-04-30T07:28:16;17.58;;;10.05;;
45812;SDS011;31519;45.408;10.962;2023-04-30T07:30:44;18.90;;;8.50;;
45812;SDS011;31519;45.408;10.962;2023-04-30T07:33:12;21.10;;;9.25;;
45812;SDS011;31519;45.408;10.962;2023-04-30T07:35:41;28.67;;;9.10;;
45812;SDS011;31519;45.408;10.962;2023-04-30T07:38:09;17.27;;;8.90;;
45812;SDS011;31519;45.408;10.962;2023-04-30T07:40:37;15.88;;;8.02;;
45812;SDS011;31519;45.408;10.962;2023-04-30T07:43:05;14.98;;;8.15;;
45812;SDS011;31519;45.408;10.962;2023-04-30T07:45:34;16.08;;;8.52;;
45812;SDS011;31519;45.408;10.962;2023-04-30T07:48:03;13.70;;;7.55;;
45812;SDS011;31519;45.408;10.962;2023-04-30T07:50:31;14.35;;;7.18;;
45812;SDS011;31519;45.408;10.962;2023-04-30T07:53:03;14.65;;;8.23;;
45812;SDS011;31519;45.408;10.962;2023-04-30T07:55:36;19.20;;;7.65;;
45812;SDS011;31519;45.408;10.962;2023-04-30T07:58:04;14.10;;;7.72;;
45812;SDS011;31519;45.408;10.962;2023-04-30T08:00:32;9.73;;;6.68;;
45812;SDS011;31519;45.408;10.962;2023-04-30T08:03:00;23.65;;;7.50;;
45812;SDS011;31519;45.408;10.962;2023-04-30T08:05:28;13.45;;;7.30;;
45812;SDS011;31519;45.408;10.962;2023-04-30T08:07:57;19.63;;;7.40;;
45812;SDS011;31519;45.408;10.962;2023-04-30T08:10:25;11.45;;;7.70;;
45812;SDS011;31519;45.408;10.962;2023-04-30T08:12:53;17.98;;;7.53;;
45812;SDS011;31519;45.408;10.962;2023-04-30T08:15:21;14.13;;;8.35;;
45812;SDS011;31519;45.408;10.962;2023-04-30T08:17:50;21.92;;;8.32;;
45812;SDS011;31519;45.408;10.962;2023-04-30T08:20:19;16.05;;;7.85;;
45812;SDS011;31519;45.408;10.962;2023-04-30T08:22:50;16.27;;;7.78;;
45812;SDS011;31519;45.408;10.962;2023-04-30T08:25:18;10.43;;;7.13;;
45812;SDS011;31519;45.408;10.962;2023-04-30T08:27:47;13.73;;;7.68;;
45812;SDS011;31519;45.408;10.962;2023-04-30T08:30:15;13.40;;;7.68;;
45812;SDS011;31519;45.408;10.962;2023-04-30T08:32:43;14.55;;;7.40;;
45812;SDS011;31519;45.408;10.962;2023-04-30T08:35:12;11.18;;;7.05;;
45812;SDS011;31519;45.408;10.962;2023-04-30T08:37:40;14.02;;;7.28;;
45812;SDS011;31519;45.408;10.962;2023-04-30T08:40:08;14.75;;;7.30;;
45812;SDS011;31519;45.408;10.962;2023-04-30T08:42:40;13.27;;;6.90;;
45812;SDS011;31519;45.408;10.962;2023-04-30T08:45:20;12.25;;;7.18;;
45812;SDS011;31519;45.408;10.962;2023-04-30T08:47:48;18.80;;;7.68;;
45812;SDS011;31519;45.408;10.962;2023-04-30T08:50:17;12.77;;;7.05;;
45812;SDS011;31519;45.408;10.962;2023-04-30T08:52:45;12.70;;;7.40;;
45812;SDS011;31519;45.408;10.962;2023-04-30T08:55:13;12.57;;;7.45;;
45812;SDS011;31519;45.408;10.962;2023-04-30T08:57:41;11.05;;;7.40;;
45812;SDS011;31519;45.408;10.962;2023-04-30T09:00:09;13.80;;;7.13;;
45812;SDS011;31519;45.408;10.962;2023-04-30T09:02:39;15.52;;;7.57;;
45812;SDS011;31519;45.408;10.962;2023-04-30T09:05:09;18.20;;;7.35;;
45812;SDS011;31519;45.408;10.962;2023-04-30T09:07:43;15.27;;;8.88;;
45812;SDS011;31519;45.408;10.962;2023-04-30T09:10:20;16.13;;;7.05;;
45812;SDS011;31519;45.408;10.962;2023-04-30T09:13:02;9.07;;;6.88;;
45812;SDS011;31519;45.408;10.962;2023-04-30T09:15:32;10.88;;;6.60;;
45812;SDS011;31519;45.408;10.962;2023-04-30T09:20:37;6.22;;;4.13;;
45812;SDS011;31519;45.408;10.962;2023-04-30T09:23:22;7.05;;;3.13;;
45812;SDS011;31519;45.408;10.962;2023-04-30T09:25:50;10.70;;;3.97;;
45812;SDS011;31519;45.408;10.962;2023-04-30T09:28:18;8.23;;;3.47;;
45812;SDS011;31519;45.408;10.962;2023-04-30T09:30:55;8.13;;;3.58;;
45812;SDS011;31519;45.408;10.962;2023-04-30T09:33:24;5.00;;;2.65;;
45812;SDS011;31519;45.408;10.962;2023-04-30T09:35:52;12.25;;;2.28;;
45812;SDS011;31519;45.408;10.962;2023-04-30T09:38:30;6.57;;;1.98;;
45812;SDS011;31519;45.408;10.962;2023-04-30T09:40:59;8.00;;;2.00;;
45812;SDS011;31519;45.408;10.962;2023-04-30T09:43:28;5.53;;;1.77;;
45812;SDS011;31519;45.408;10.962;2023-04-30T09:45:57;2.95;;;1.55;;
45812;SDS011;31519;45.408;10.962;2023-04-30T09:48:27;4.47;;;1.50;;
45812;SDS011;31519;45.408;10.962;2023-04-30T09:50:55;3.25;;;1.77;;
45812;SDS011;31519;45.408;10.962;2023-04-30T09:53:23;5.53;;;1.70;;
45812;SDS011;31519;45.408;10.962;2023-04-30T09:55:53;16.33;;;2.88;;
45812;SDS011;31519;45.408;10.962;2023-04-30T09:58:26;53.20;;;3.38;;
45812;SDS011;31519;45.408;10.962;2023-04-30T10:00:56;12.85;;;2.28;;
45812;SDS011;31519;45.408;10.962;2023-04-30T10:03:26;5.07;;;1.60;;
45812;SDS011;31519;45.408;10.962;2023-04-30T10:05:55;2.83;;;1.40;;
45812;SDS011;31519;45.408;10.962;2023-04-30T10:08:29;2.63;;;1.60;;
45812;SDS011;31519;45.408;10.962;2023-04-30T10:13:31;4.22;;;1.52;;
45812;SDS011;31519;45.408;10.962;2023-04-30T10:16:14;6.72;;;1.75;;
45812;SDS011;31519;45.408;10.962;2023-04-30T10:18:52;2.45;;;1.35;;
45812;SDS011;31519;45.408;10.962;2023-04-30T10:21:22;1.67;;;1.33;;
45812;SDS011;31519;45.408;10.962;2023-04-30T10:23:53;2.63;;;1.23;;
45812;SDS011;31519;45.408;10.962;2023-04-30T10:26:21;2.40;;;1.27;;
45812;SDS011;31519;45.408;10.962;2023-04-30T10:28:51;1.42;;;1.27;;
45812;SDS011;31519;45.408;10.962;2023-04-30T10:31:21;2.47;;;1.27;;
45812;SDS011;31519;45.408;10.962;2023-04-30T10:36:47;3.10;;;1.17;;
45812;SDS011;31519;45.408;10.962;2023-04-30T10:39:21;1.25;;;1.10;;
45812;SDS011;31519;45.408;10.962;2023-04-30T10:42:01;2.38;;;1.02;;
45812;SDS011;31519;45.408;10.962;2023-04-30T10:44:31;1.80;;;1.23;;
45812;SDS011;31519;45.408;10.962;2023-04-30T10:47:04;1.60;;;1.00;;
45812;SDS011;31519;45.408;10.962;2023-04-30T10:49:33;3.08;;;1.40;;
45812;SDS011;31519;45.408;10.962;2023-04-30T10:52:02;4.43;;;1.10;;
45812;SDS011;31519;45.408;10.962;2023-04-30T10:54:35;2.47;;;1.05;;
45812;SDS011;31519;45.408;10.962;2023-04-30T10:57:13;1.65;;;1.10;;
45812;SDS011;31519;45.408;10.962;2023-04-30T10:59:51;3.22;;;1.00;;
45812;SDS011;31519;45.408;10.962;2023-04-30T11:02:41;1.02;;;0.80;;
45812;SDS011;31519;45.408;10.962;2023-04-30T11:07:48;1.52;;;1.05;;
45812;SDS011;31519;45.408;10.962;2023-04-30T11:10:21;2.92;;;1.08;;
45812;SDS011;31519;45.408;10.962;2023-04-30T11:12:51;1.02;;;0.70;;
45812;SDS011;31519;45.408;10.962;2023-04-30T11:15:25;3.38;;;1.30;;
45812;SDS011;31519;45.408;10.962;2023-04-30T11:17:58;2.65;;;0.95;;
45812;SDS011;31519;45.408;10.962;2023-04-30T11:20:26;2.58;;;0.90;;
45812;SDS011;31519;45.408;10.962;2023-04-30T11:23:07;0.80;;;0.80;;
45812;SDS011;31519;45.408;10.962;2023-04-30T11:25:59;1.17;;;1.05;;
45812;SDS011;31519;45.408;10.962;2023-04-30T11:28:27;1.60;;;0.80;;
45812;SDS011;31519;45.408;10.962;2023-04-30T11:30:58;2.85;;;0.95;;
45812;SDS011;31519;45.408;10.962;2023-04-30T11:33:28;3.65;;;0.70;;
45812;SDS011;31519;45.408;10.962;2023-04-30T11:35:59;1.17;;;0.80;;
45812;SDS011;31519;45.408;10.962;2023-04-30T11:38:29;3.78;;;1.00;;
45812;SDS011;31519;45.408;10.962;2023-04-30T11:41:01;3.08;;;1.15;;
45812;SDS011;31519;45.408;10.962;2023-04-30T11:43:31;3.70;;;0.95;;
45812;SDS011;31519;45.408;10.962;2023-04-30T11:46:11;3.40;;;0.95;;
45812;SDS011;31519;45.408;10.962;2023-04-30T11:48:41;3.63;;;1.00;;
45812;SDS011;31519;45.408;10.962;2023-04-30T11:51:15;6.13;;;1.40;;
45812;SDS011;31519;45.408;10.962;2023-04-30T11:53:48;3.60;;;1.02;;
45812;SDS011;31519;45.408;10.962;2023-04-30T11:56:19;3.70;;;1.05;;
45812;SDS011;31519;45.408;10.962;2023-04-30T11:58:52;3.63;;;1.13;;
45812;SDS011;31519;45.408;10.962;2023-04-30T12:01:25;4.57;;;0.82;;
45812;SDS011;31519;45.408;10.962;2023-04-30T12:03:55;3.55;;;1.15;;
45812;SDS011;31519;45.408;10.962;2023-04-30T12:06:25;7.22;;;1.08;;
45812;SDS011;31519;45.408;10.962;2023-04-30T12:08:55;1.98;;;1.00;;
45812;SDS011;31519;45.408;10.962;2023-04-30T12:11:29;5.55;;;1.40;;
45812;SDS011;31519;45.408;10.962;2023-04-30T12:16:48;4.85;;;1.20;;
45812;SDS011;31519;45.408;10.962;2023-04-30T12:19:19;4.07;;;1.17;;
45812;SDS011;31519;45.408;10.962;2023-04-30T12:21:52;4.43;;;1.48;;
45812;SDS011;31519;45.408;10.962;2023-04-30T12:24:21;2.97;;;1.02;;
45812;SDS011;31519;45.408;10.962;2023-04-30T12:26:54;1.70;;;1.13;;
45812;SDS011;31519;45.408;10.962;2023-04-30T12:29:22;1.67;;;1.00;;
45812;SDS011;31519;45.408;10.962;2023-04-30T12:31:52;1.58;;;0.80;;
45812;SDS011;31519;45.408;10.962;2023-04-30T12:34:21;5.40;;;1.33;;
45812;SDS011;31519;45.408;10.962;2023-04-30T12:36:56;2.33;;;1.00;;
45812;SDS011;31519;45.408;10.962;2023-04-30T12:39:24;1.17;;;1.08;;
45812;SDS011;31519;45.408;10.962;2023-04-30T12:42:00;3.83;;;1.10;;
45812;SDS011;31519;45.408;10.962;2023-04-30T12:44:28;5.85;;;1.45;;
45812;SDS011;31519;45.408;10.962;2023-04-30T12:46:56;1.17;;;0.95;;
45812;SDS011;31519;45.408;10.962;2023-04-30T12:49:28;3.58;;;0.90;;
45812;SDS011;31519;45.408;10.962;2023-04-30T12:52:04;16.85;;;0.88;;
45812;SDS011;31519;45.408;10.962;2023-04-30T12:54:36;1.10;;;1.00;;
45812;SDS011;31519;45.408;10.962;2023-04-30T12:57:09;1.95;;;0.90;;
45812;SDS011;31519;45.408;10.962;2023-04-30T13:02:24;2.40;;;0.88;;
45812;SDS011;31519;45.408;10.962;2023-04-30T13:04:54;4.97;;;1.08;;
45812;SDS011;31519;45.408;10.962;2023-04-30T13:07:22;0.70;;;0.70;;
45812;SDS011;31519;45.408;10.962;2023-04-30T13:09:51;1.67;;;1.40;;
45812;SDS011;31519;45.408;10.962;2023-04-30T13:12:19;5.00;;;1.73;;
45812;SDS011;31519;45.408;10.962;2023-04-30T13:14:47;1.80;;;1.35;;
45812;SDS011;31519;45.408;10.962;2023-04-30T13:17:16;4.03;;;1.95;;
45812;SDS011;31519;45.408;10.962;2023-04-30T13:19:44;4.57;;;1.70;;
45812;SDS011;31519;45.408;10.962;2023-04-30T13:22:12;4.95;;;2.05;;
45812;SDS011;31519;45.408;10.962;2023-04-30T13:24:40;1.38;;;1.00;;
45812;SDS011;31519;45.408;10.962;2023-04-30T13:27:09;1.10;;;1.00;;
45812;SDS011;31519;45.408;10.962;2023-04-30T13:29:38;2.03;;;0.90;;
45812;SDS011;31519;45.408;10.962;2023-04-30T13:32:06;6.38;;;0.90;;
45812;SDS011;31519;45.408;10.962;2023-04-30T13:34:34;0.90;;;0.90;;
45812;SDS011;31519;45.408;10.962;2023-04-30T13:37:03;5.55;;;1.23;;
45812;SDS011;31519;45.408;10.962;2023-04-30T13:39:31;0.90;;;0.63;;
45812;SDS011;31519;45.408;10.962;2023-04-30T13:41:59;0.68;;;0.68;;
45812;SDS011;31519;45.408;10.962;2023-04-30T13:44:28;4.70;;;0.60;;
45812;SDS011;31519;45.408;10.962;2023-04-30T13:47:01;2.42;;;1.00;;
45812;SDS011;31519;45.408;10.962;2023-04-30T13:49:29;0.73;;;0.73;;
45812;SDS011;31519;45.408;10.962;2023-04-30T13:51:57;7.28;;;1.02;;
45812;SDS011;31519;45.408;10.962;2023-04-30T13:54:25;3.83;;;1.10;;
45812;SDS011;31519;45.408;10.962;2023-04-30T13:56:54;2.42;;;1.20;;
45812;SDS011;31519;45.408;10.962;2023-04-30T13:59:22;4.60;;;1.60;;
45812;SDS011;31519;45.408;10.962;2023-04-30T14:01:50;4.32;;;1.67;;
45812;SDS011;31519;45.408;10.962;2023-04-30T14:04:18;1.17;;;1.08;;
45812;SDS011;31519;45.408;10.962;2023-04-30T14:06:47;2.85;;;1.08;;
45812;SDS011;31519;45.408;10.962;2023-04-30T14:09:15;3.22;;;2.35;;
45812;SDS011;31519;45.408;10.962;2023-04-30T14:11:45;2.13;;;1.92;;
45812;SDS011;31519;45.408;10.962;2023-04-30T14:14:13;2.45;;;1.45;;
45812;SDS011;31519;45.408;10.962;2023-04-30T14:16:42;1.00;;;0.90;;
45812;SDS011;31519;45.408;10.962;2023-04-30T14:19:11;3.70;;;1.20;;
45812;SDS011;31519;45.408;10.962;2023-04-30T14:21:39;1.92;;;1.45;;
45812;SDS011;31519;45.408;10.962;2023-04-30T14:24:07;1.83;;;1.73;;
45812;SDS011;31519;45.408;10.962;2023-04-30T14:26:37;1.92;;;1.63;;
45812;SDS011;31519;45.408;10.962;2023-04-30T14:29:09;7.72;;;4.50;;
45812;SDS011;31519;45.408;10.962;2023-04-30T14:31:37;5.18;;;2.50;;
45812;SDS011;31519;45.408;10.962;2023-04-30T14:34:05;3.75;;;2.53;;
45812;SDS011;31519;45.408;10.962;2023-04-30T14:36:33;3.15;;;2.25;;
45812;SDS011;31519;45.408;10.962;2023-04-30T14:39:03;1.63;;;1.50;;
45812;SDS011;31519;45.408;10.962;2023-04-30T14:41:35;2.83;;;1.85;;
45812;SDS011;31519;45.408;10.962;2023-04-30T14:44:04;2.60;;;1.63;;
45812;SDS011;31519;45.408;10.962;2023-04-30T14:46:32;1.15;;;1.08;;
45812;SDS011;31519;45.408;10.962;2023-04-30T14:49:01;1.27;;;1.00;;
45812;SDS011;31519;45.408;10.962;2023-04-30T14:51:31;0.90;;;0.90;;
45812;SDS011;31519;45.408;10.962;2023-04-30T14:53:59;0.82;;;0.80;;
45812;SDS011;31519;45.408;10.962;2023-04-30T14:56:29;4.57;;;0.82;;
45812;SDS011;31519;45.408;10.962;2023-04-30T14:58:57;2.78;;;1.27;;
45812;SDS011;31519;45.408;10.962;2023-04-30T15:01:26;1.77;;;1.20;;